sensor_id;sensor_type;location;lat;lon;timestamp;pressure;altitude;pressure_sealevel;temperature;humidity
73101;BME280;61288;53.446;-2.266;2023-11-25T00:00:52;102916.97;;;-1.66;100.00
73101;BME280;61288;53.446;-2.266;2023-11-25T00:03:18;102911.91;;;-1.66;100.00
73101;BME280;61288;53.446;-2.266;2023-11-25T00:05:44;102923.59;;;-1.70;100.00
73101;BME280;61288;53.446;-2.266;2023-11-25T00:08:09;102932.00;;;-1.71;100.00
73101;BME280;61288;53.446;-2.266;2023-11-25T00:10:35;102933.69;;;-1.71;100.00
73101;BME280;61288;53.446;-2.266;2023-11-25T00:13:03;102926.06;;;-1.71;100.00
73101;BME280;61288;53.446;-2.266;2023-11-25T00:15:29;102931.97;;;-1.72;100.00
73101;BME280;61288;53.446;-2.266;2023-11-25T00:17:55;102937.91;;;-1.72;100.00
73101;BME280;61288;53.446;-2.266;2023-11-25T00:20:22;102938.56;;;-1.76;100.00
73101;BME280;61288;53.446;-2.266;2023-11-25T00:22:48;102936.91;;;-1.76;100.00
73101;BME280;61288;53.446;-2.266;2023-11-25T00:25:13;102935.06;;;-1.78;100.00
73101;BME280;61288;53.446;-2.266;2023-11-25T00:27:45;102932.25;;;-1.84;100.00
73101;BME280;61288;53.446;-2.266;2023-11-25T00:30:14;102931.22;;;-1.88;100.00
73101;BME280;61288;53.446;-2.266;2023-11-25T00:32:40;102936.75;;;-1.97;100.00
73101;BME280;61288;53.446;-2.266;2023-11-25T00:35:13;102940.81;;;-2.00;100.00
73101;BME280;61288;53.446;-2.266;2023-11-25T00:37:39;102931.44;;;-2.01;100.00
73101;BME280;61288;53.446;-2.266;2023-11-25T00:40:06;102933.09;;;-2.02;100.00
73101;BME280;61288;53.446;-2.266;2023-11-25T00:42:37;102957.38;;;-2.09;100.00
73101;BME280;61288;53.446;-2.266;2023-11-25T00:45:11;102958.16;;;-2.10;100.00
73101;BME280;61288;53.446;-2.266;2023-11-25T00:47:37;102952.28;;;-2.09;100.00
73101;BME280;61288;53.446;-2.266;2023-11-25T00:50:11;102942.97;;;-2.08;100.00
73101;BME280;61288;53.446;-2.266;2023-11-25T00:52:40;102946.59;;;-2.03;100.00
73101;BME280;61288;53.446;-2.266;2023-11-25T00:55:06;102956.47;;;-2.09;100.00
73101;BME280;61288;53.446;-2.266;2023-11-25T00:57:32;102964.69;;;-2.15;100.00
73101;BME280;61288;53.446;-2.266;2023-11-25T00:59:58;102970.72;;;-2.13;100.00
73101;BME280;61288;53.446;-2.266;2023-11-25T01:02:23;102969.91;;;-2.12;100.00
73101;BME280;61288;53.446;-2.266;2023-11-25T01:04:49;102958.81;;;-2.14;100.00
73101;BME280;61288;53.446;-2.266;2023-11-25T01:07:19;102965.53;;;-2.14;100.00
73101;BME280;61288;53.446;-2.266;2023-11-25T01:09:48;102978.97;;;-2.17;100.00
73101;BME280;61288;53.446;-2.266;2023-11-25T01:12:13;102985.63;;;-2.19;100.00
73101;BME280;61288;53.446;-2.266;2023-11-25T01:14:40;102976.28;;;-2.20;100.00
73101;BME280;61288;53.446;-2.266;2023-11-25T01:17:14;102972.06;;;-2.20;100.00
73101;BME280;61288;53.446;-2.266;2023-11-25T01:19:40;102977.16;;;-2.20;100.00
73101;BME280;61288;53.446;-2.266;2023-11-25T01:22:06;102981.34;;;-2.20;100.00
73101;BME280;61288;53.446;-2.266;2023-11-25T01:24:31;102981.06;;;-2.26;100.00
73101;BME280;61288;53.446;-2.266;2023-11-25T01:26:57;102979.97;;;-2.32;100.00
73101;BME280;61288;53.446;-2.266;2023-11-25T01:29:23;102991.72;;;-2.34;100.00
73101;BME280;61288;53.446;-2.266;2023-11-25T01:31:49;102997.63;;;-2.33;100.00
73101;BME280;61288;53.446;-2.266;2023-11-25T01:34:14;102992.56;;;-2.33;100.00
73101;BME280;61288;53.446;-2.266;2023-11-25T01:36:39;102986.78;;;-2.30;100.00
73101;BME280;61288;53.446;-2.266;2023-11-25T01:39:05;102996.13;;;-2.29;100.00
73101;BME280;61288;53.446;-2.266;2023-11-25T01:41:31;103011.88;;;-2.37;100.00
73101;BME280;61288;53.446;-2.266;2023-11-25T01:43:56;103007.44;;;-2.41;100.00
73101;BME280;61288;53.446;-2.266;2023-11-25T01:46:48;103006.53;;;-2.41;100.00
73101;BME280;61288;53.446;-2.266;2023-11-25T01:49:19;103006.53;;;-2.41;100.00
73101;BME280;61288;53.446;-2.266;2023-11-25T01:51:46;103006.50;;;-2.43;100.00
73101;BME280;61288;53.446;-2.266;2023-11-25T01:54:15;103014.97;;;-2.42;100.00
73101;BME280;61288;53.446;-2.266;2023-11-25T01:56:41;103019.97;;;-2.44;100.00
73101;BME280;61288;53.446;-2.266;2023-11-25T01:59:13;103014.91;;;-2.44;100.00
73101;BME280;61288;53.446;-2.266;2023-11-25T02:01:43;103014.75;;;-2.47;100.00
73101;BME280;61288;53.446;-2.266;2023-11-25T02:04:20;103011.88;;;-2.53;100.00
73101;BME280;61288;53.446;-2.266;2023-11-25T02:06:45;103017.75;;;-2.54;100.00
73101;BME280;61288;53.446;-2.266;2023-11-25T02:09:14;103015.28;;;-2.53;100.00
73101;BME280;61288;53.446;-2.266;2023-11-25T02:12:02;103013.41;;;-2.57;100.00
73101;BME280;61288;53.446;-2.266;2023-11-25T02:14:28;103020.91;;;-2.58;100.00
73101;BME280;61288;53.446;-2.266;2023-11-25T02:16:55;103029.34;;;-2.59;100.00
73101;BME280;61288;53.446;-2.266;2023-11-25T02:19:21;103029.34;;;-2.59;100.00
73101;BME280;61288;53.446;-2.266;2023-11-25T02:21:49;103020.91;;;-2.58;100.00
73101;BME280;61288;53.446;-2.266;2023-11-25T02:24:16;103009.91;;;-2.59;100.00
73101;BME280;61288;53.446;-2.266;2023-11-25T02:26:43;103020.75;;;-2.62;100.00
73101;BME280;61288;53.446;-2.266;2023-11-25T02:29:09;103028.94;;;-2.67;100.00
73101;BME280;61288;53.446;-2.266;2023-11-25T02:31:38;103034.97;;;-2.65;100.00
73101;BME280;61288;53.446;-2.266;2023-11-25T02:34:04;103032.50;;;-2.64;100.00
73101;BME280;61288;53.446;-2.266;2023-11-25T02:36:36;103034.34;;;-2.61;100.00
73101;BME280;61288;53.446;-2.266;2023-11-25T02:39:03;103029.03;;;-2.66;100.00
73101;BME280;61288;53.446;-2.266;2023-11-25T02:41:29;103029.72;;;-2.68;100.00
73101;BME280;61288;53.446;-2.266;2023-11-25T02:43:57;103026.31;;;-2.69;100.00
73101;BME280;61288;53.446;-2.266;2023-11-25T02:46:26;103019.66;;;-2.67;100.00
73101;BME280;61288;53.446;-2.266;2023-11-25T02:48:53;103000.16;;;-2.68;100.00
73101;BME280;61288;53.446;-2.266;2023-11-25T02:51:21;102999.25;;;-2.68;100.00
73101;BME280;61288;53.446;-2.266;2023-11-25T02:53:48;103004.28;;;-2.70;100.00
73101;BME280;61288;53.446;-2.266;2023-11-25T02:56:14;102998.09;;;-2.75;100.00
73101;BME280;61288;53.446;-2.266;2023-11-25T02:58:43;102997.22;;;-2.76;100.00
73101;BME280;61288;53.446;-2.266;2023-11-25T03:01:10;102998.16;;;-2.73;100.00
73101;BME280;61288;53.446;-2.266;2023-11-25T03:03:37;102998.31;;;-2.70;100.00
73101;BME280;61288;53.446;-2.266;2023-11-25T03:06:10;103005.13;;;-2.69;100.00
73101;BME280;61288;53.446;-2.266;2023-11-25T03:08:36;103016.00;;;-2.72;100.00
73101;BME280;61288;53.446;-2.266;2023-11-25T03:11:03;103019.41;;;-2.71;100.00
73101;BME280;61288;53.446;-2.266;2023-11-25T03:13:40;103017.13;;;-2.67;100.00
73101;BME280;61288;53.446;-2.266;2023-11-25T03:16:06;103012.03;;;-2.67;100.00
73101;BME280;61288;53.446;-2.266;2023-11-25T03:18:34;103007.06;;;-2.65;100.00
73101;BME280;61288;53.446;-2.266;2023-11-25T03:21:00;103003.72;;;-2.64;100.00
73101;BME280;61288;53.446;-2.266;2023-11-25T03:23:26;102990.69;;;-2.70;100.00
73101;BME280;61288;53.446;-2.266;2023-11-25T03:25:51;102999.84;;;-2.74;100.00
73101;BME280;61288;53.446;-2.266;2023-11-25T03:28:17;102999.09;;;-2.71;100.00
73101;BME280;61288;53.446;-2.266;2023-11-25T03:30:42;103005.72;;;-2.75;100.00
73101;BME280;61288;53.446;-2.266;2023-11-25T03:33:08;103004.59;;;-2.80;100.00
73101;BME280;61288;53.446;-2.266;2023-11-25T03:35:34;103004.66;;;-2.79;100.00
73101;BME280;61288;53.446;-2.266;2023-11-25T03:38:00;102999.69;;;-2.77;100.00
73101;BME280;61288;53.446;-2.266;2023-11-25T03:40:25;103001.28;;;-2.79;100.00
73101;BME280;61288;53.446;-2.266;2023-11-25T03:42:51;102998.63;;;-2.81;100.00
73101;BME280;61288;53.446;-2.266;2023-11-25T03:45:16;102996.25;;;-2.78;100.00
73101;BME280;61288;53.446;-2.266;2023-11-25T03:47:43;102995.47;;;-2.77;100.00
73101;BME280;61288;53.446;-2.266;2023-11-25T03:50:11;102999.53;;;-2.80;100.00
73101;BME280;61288;53.446;-2.266;2023-11-25T03:52:38;103006.41;;;-2.78;100.00
73101;BME280;61288;53.446;-2.266;2023-11-25T03:55:09;103006.16;;;-2.82;100.00
73101;BME280;61288;53.446;-2.266;2023-11-25T03:57:38;103009.59;;;-2.82;100.00
73101;BME280;61288;53.446;-2.266;2023-11-25T04:00:04;102998.72;;;-2.79;100.00
73101;BME280;61288;53.446;-2.266;2023-11-25T04:02:52;103012.44;;;-2.76;100.00
73101;BME280;61288;53.446;-2.266;2023-11-25T04:05:17;103027.44;;;-2.80;100.00
73101;BME280;61288;53.446;-2.266;2023-11-25T04:07:43;103031.88;;;-2.76;100.00
73101;BME280;61288;53.446;-2.266;2023-11-25T04:10:10;103026.56;;;-2.81;100.00
73101;BME280;61288;53.446;-2.266;2023-11-25T04:12:46;103019.03;;;-2.79;100.00
73101;BME280;61288;53.446;-2.266;2023-11-25T04:15:13;103018.25;;;-2.78;100.00
73101;BME280;61288;53.446;-2.266;2023-11-25T04:17:41;103017.50;;;-2.76;100.00
73101;BME280;61288;53.446;-2.266;2023-11-25T04:20:14;103014.19;;;-2.74;100.00
73101;BME280;61288;53.446;-2.266;2023-11-25T04:22:52;103025.84;;;-2.78;100.00
73101;BME280;61288;53.446;-2.266;2023-11-25T04:25:18;103019.09;;;-2.78;100.00
73101;BME280;61288;53.446;-2.266;2023-11-25T04:27:48;103015.84;;;-2.75;100.00
73101;BME280;61288;53.446;-2.266;2023-11-25T04:30:15;103012.59;;;-2.72;100.00
73101;BME280;61288;53.446;-2.266;2023-11-25T04:32:47;103005.94;;;-2.70;100.00
73101;BME280;61288;53.446;-2.266;2023-11-25T04:35:13;103000.00;;;-2.71;100.00
73101;BME280;61288;53.446;-2.266;2023-11-25T04:37:50;103003.06;;;-2.77;100.00
73101;BME280;61288;53.446;-2.266;2023-11-25T04:40:15;103005.63;;;-2.77;100.00
73101;BME280;61288;53.446;-2.266;2023-11-25T04:42:42;103006.66;;;-2.73;100.00
73101;BME280;61288;53.446;-2.266;2023-11-25T04:45:08;103009.09;;;-2.74;100.00
73101;BME280;61288;53.446;-2.266;2023-11-25T04:47:43;102992.28;;;-2.72;100.00
73101;BME280;61288;53.446;-2.266;2023-11-25T04:50:10;102988.81;;;-2.74;100.00
73101;BME280;61288;53.446;-2.266;2023-11-25T04:52:37;102994.34;;;-2.82;100.00
73101;BME280;61288;53.446;-2.266;2023-11-25T04:55:02;102982.16;;;-2.89;100.00
73101;BME280;61288;53.446;-2.266;2023-11-25T04:57:28;102986.44;;;-2.88;100.00
73101;BME280;61288;53.446;-2.266;2023-11-25T04:59:54;102978.81;;;-2.88;100.00
73101;BME280;61288;53.446;-2.266;2023-11-25T05:02:19;102985.31;;;-2.93;100.00
73101;BME280;61288;53.446;-2.266;2023-11-25T05:04:46;102985.22;;;-2.95;100.00
73101;BME280;61288;53.446;-2.266;2023-11-25T05:07:11;102993.72;;;-2.94;100.00
73101;BME280;61288;53.446;-2.266;2023-11-25T05:09:37;102992.13;;;-2.92;100.00
73101;BME280;61288;53.446;-2.266;2023-11-25T05:12:12;102988.03;;;-2.90;100.00
73101;BME280;61288;53.446;-2.266;2023-11-25T05:14:40;102982.00;;;-2.92;100.00
73101;BME280;61288;53.446;-2.266;2023-11-25T05:17:07;102988.03;;;-2.90;100.00
73101;BME280;61288;53.446;-2.266;2023-11-25T05:19:32;102979.38;;;-2.94;100.00
73101;BME280;61288;53.446;-2.266;2023-11-25T05:22:03;102982.53;;;-2.98;100.00
73101;BME280;61288;53.446;-2.266;2023-11-25T05:24:30;102982.38;;;-3.01;100.00
73101;BME280;61288;53.446;-2.266;2023-11-25T05:26:55;102984.22;;;-2.98;100.00
73101;BME280;61288;53.446;-2.266;2023-11-25T05:29:21;102987.69;;;-2.96;100.00
73101;BME280;61288;53.446;-2.266;2023-11-25T05:31:47;102978.41;;;-2.96;100.00
73101;BME280;61288;53.446;-2.266;2023-11-25T05:34:13;102992.94;;;-2.93;100.00
73101;BME280;61288;53.446;-2.266;2023-11-25T05:36:39;102989.59;;;-2.92;100.00
73101;BME280;61288;53.446;-2.266;2023-11-25T05:39:05;102983.00;;;-2.88;100.00
73101;BME280;61288;53.446;-2.266;2023-11-25T05:41:35;102975.72;;;-2.82;100.00
73101;BME280;61288;53.446;-2.266;2023-11-25T05:44:06;102975.16;;;-2.77;100.00
73101;BME280;61288;53.446;-2.266;2023-11-25T05:46:37;102980.09;;;-2.80;100.00
73101;BME280;61288;53.446;-2.266;2023-11-25T05:49:03;102989.38;;;-2.80;100.00
73101;BME280;61288;53.446;-2.266;2023-11-25T05:51:52;102994.59;;;-2.77;100.00
73101;BME280;61288;53.446;-2.266;2023-11-25T05:54:18;102994.13;;;-2.70;100.00
73101;BME280;61288;53.446;-2.266;2023-11-25T05:56:44;102996.13;;;-2.64;100.00
73101;BME280;61288;53.446;-2.266;2023-11-25T05:59:10;102998.81;;;-2.61;100.00
73101;BME280;61288;53.446;-2.266;2023-11-25T06:01:36;102981.09;;;-2.59;100.00
73101;BME280;61288;53.446;-2.266;2023-11-25T06:04:02;102980.47;;;-2.55;100.00
73101;BME280;61288;53.446;-2.266;2023-11-25T06:06:27;102981.09;;;-2.59;100.00
73101;BME280;61288;53.446;-2.266;2023-11-25T06:08:53;102983.56;;;-2.61;100.00
73101;BME280;61288;53.446;-2.266;2023-11-25T06:11:22;102985.31;;;-2.60;100.00
73101;BME280;61288;53.446;-2.266;2023-11-25T06:13:48;102989.50;;;-2.61;100.00
73101;BME280;61288;53.446;-2.266;2023-11-25T06:16:14;102972.63;;;-2.60;100.00
73101;BME280;61288;53.446;-2.266;2023-11-25T06:18:40;102966.81;;;-2.57;100.00
73101;BME280;61288;53.446;-2.266;2023-11-25T06:21:06;102956.50;;;-2.61;100.00
73101;BME280;61288;53.446;-2.266;2023-11-25T06:23:32;102957.16;;;-2.65;100.00
73101;BME280;61288;53.446;-2.266;2023-11-25T06:25:58;102963.66;;;-2.70;100.00
73101;BME280;61288;53.446;-2.266;2023-11-25T06:28:24;102960.97;;;-2.73;100.00
73101;BME280;61288;53.446;-2.266;2023-11-25T06:30:50;102952.41;;;-2.75;100.00
73101;BME280;61288;53.446;-2.266;2023-11-25T06:33:23;102944.72;;;-2.77;100.00
73101;BME280;61288;53.446;-2.266;2023-11-25T06:35:51;102949.88;;;-2.75;100.00
73101;BME280;61288;53.446;-2.266;2023-11-25T06:38:23;102935.44;;;-2.76;100.00
73101;BME280;61288;53.446;-2.266;2023-11-25T06:40:49;102938.63;;;-2.80;100.00
73101;BME280;61288;53.446;-2.266;2023-11-25T06:43:15;102935.84;;;-2.85;100.00
73101;BME280;61288;53.446;-2.266;2023-11-25T06:45:41;102940.19;;;-2.82;100.00
73101;BME280;61288;53.446;-2.266;2023-11-25T06:48:10;102946.06;;;-2.83;100.00
73101;BME280;61288;53.446;-2.266;2023-11-25T06:50:36;102936.78;;;-2.83;100.00
73101;BME280;61288;53.446;-2.266;2023-11-25T06:53:02;102931.06;;;-2.79;100.00
73101;BME280;61288;53.446;-2.266;2023-11-25T06:55:29;102934.41;;;-2.80;100.00
73101;BME280;61288;53.446;-2.266;2023-11-25T06:58:04;102924.81;;;-2.85;100.00
73101;BME280;61288;53.446;-2.266;2023-11-25T07:00:29;102929.88;;;-2.85;100.00
73101;BME280;61288;53.446;-2.266;2023-11-25T07:02:55;102935.38;;;-2.94;100.00
73101;BME280;61288;53.446;-2.266;2023-11-25T07:05:20;102934.50;;;-2.95;100.00
73101;BME280;61288;53.446;-2.266;2023-11-25T07:07:46;102930.22;;;-2.96;100.00
73101;BME280;61288;53.446;-2.266;2023-11-25T07:10:11;102919.28;;;-2.95;100.00
73101;BME280;61288;53.446;-2.266;2023-11-25T07:12:45;102907.38;;;-2.96;100.00
73101;BME280;61288;53.446;-2.266;2023-11-25T07:15:11;102913.25;;;-2.97;100.00
73101;BME280;61288;53.446;-2.266;2023-11-25T07:17:37;102923.09;;;-3.03;100.00
73101;BME280;61288;53.446;-2.266;2023-11-25T07:20:06;102922.78;;;-3.09;100.00
73101;BME280;61288;53.446;-2.266;2023-11-25T07:22:38;102916.03;;;-3.09;100.00
73101;BME280;61288;53.446;-2.266;2023-11-25T07:25:05;102916.13;;;-3.07;100.00
73101;BME280;61288;53.446;-2.266;2023-11-25T07:27:30;102912.63;;;-3.09;100.00
73101;BME280;61288;53.446;-2.266;2023-11-25T07:29:56;102922.84;;;-3.08;100.00
73101;BME280;61288;53.446;-2.266;2023-11-25T07:32:52;102916.41;;;-3.17;100.00
73101;BME280;61288;53.446;-2.266;2023-11-25T07:35:20;102922.22;;;-3.20;100.00
73101;BME280;61288;53.446;-2.266;2023-11-25T07:37:46;102925.38;;;-3.24;100.00
73101;BME280;61288;53.446;-2.266;2023-11-25T07:40:11;102920.38;;;-3.23;100.00
73101;BME280;61288;53.446;-2.266;2023-11-25T07:43:00;102917.13;;;-3.20;100.00
73101;BME280;61288;53.446;-2.266;2023-11-25T07:45:26;102917.13;;;-3.20;100.00
73101;BME280;61288;53.446;-2.266;2023-11-25T07:47:52;102934.94;;;-3.19;100.00
73101;BME280;61288;53.446;-2.266;2023-11-25T07:50:18;102935.69;;;-3.21;100.00
73101;BME280;61288;53.446;-2.266;2023-11-25T07:52:50;102927.19;;;-3.22;100.00
73101;BME280;61288;53.446;-2.266;2023-11-25T07:55:19;102940.50;;;-3.26;100.00
73101;BME280;61288;53.446;-2.266;2023-11-25T07:57:45;102941.38;;;-3.25;100.00
73101;BME280;61288;53.446;-2.266;2023-11-25T08:00:17;102941.22;;;-3.28;100.00
73101;BME280;61288;53.446;-2.266;2023-11-25T08:02:46;102943.97;;;-3.24;100.00
73101;BME280;61288;53.446;-2.266;2023-11-25T08:05:23;102948.09;;;-3.26;100.00
73101;BME280;61288;53.446;-2.266;2023-11-25T08:07:56;102949.94;;;-3.23;100.00
73101;BME280;61288;53.446;-2.266;2023-11-25T08:10:23;102953.97;;;-3.27;100.00
73101;BME280;61288;53.446;-2.266;2023-11-25T08:12:49;102957.28;;;-3.28;100.00
73101;BME280;61288;53.446;-2.266;2023-11-25T08:15:15;102956.50;;;-3.27;100.00
73101;BME280;61288;53.446;-2.266;2023-11-25T08:17:43;102954.22;;;-3.22;100.00
73101;BME280;61288;53.446;-2.266;2023-11-25T08:20:17;102961.91;;;-3.21;100.00
73101;BME280;61288;53.446;-2.266;2023-11-25T08:22:43;102962.69;;;-3.22;100.00
73101;BME280;61288;53.446;-2.266;2023-11-25T08:25:08;102972.13;;;-3.19;100.00
73101;BME280;61288;53.446;-2.266;2023-11-25T08:27:35;102968.00;;;-3.17;100.00
73101;BME280;61288;53.446;-2.266;2023-11-25T08:30:01;102961.50;;;-3.12;100.00
73101;BME280;61288;53.446;-2.266;2023-11-25T08:32:27;102963.50;;;-3.06;100.00
73101;BME280;61288;53.446;-2.266;2023-11-25T08:34:56;102968.75;;;-3.03;100.00
73101;BME280;61288;53.446;-2.266;2023-11-25T08:37:22;102976.34;;;-3.03;100.00
73101;BME280;61288;53.446;-2.266;2023-11-25T08:40:01;102969.69;;;-3.01;100.00
73101;BME280;61288;53.446;-2.266;2023-11-25T08:42:28;102980.25;;;-2.93;100.00
73101;BME280;61288;53.446;-2.266;2023-11-25T08:44:56;102977.13;;;-2.87;100.00
73101;BME280;61288;53.446;-2.266;2023-11-25T08:47:26;102986.91;;;-2.79;100.00
73101;BME280;61288;53.446;-2.266;2023-11-25T08:49:52;102984.63;;;-2.74;100.00
73101;BME280;61288;53.446;-2.266;2023-11-25T08:52:20;102982.13;;;-2.72;100.00
73101;BME280;61288;53.446;-2.266;2023-11-25T08:54:47;102990.00;;;-2.68;100.00
73101;BME280;61288;53.446;-2.266;2023-11-25T08:57:18;102986.81;;;-2.64;100.00
73101;BME280;61288;53.446;-2.266;2023-11-25T08:59:46;102980.47;;;-2.55;100.00
73101;BME280;61288;53.446;-2.266;2023-11-25T09:02:11;102983.31;;;-2.49;100.00
73101;BME280;61288;53.446;-2.266;2023-11-25T09:04:40;102973.25;;;-2.48;100.00
73101;BME280;61288;53.446;-2.266;2023-11-25T09:07:36;102975.06;;;-2.45;100.00
73101;BME280;61288;53.446;-2.266;2023-11-25T09:10:04;102977.13;;;-2.38;100.00
73101;BME280;61288;53.446;-2.266;2023-11-25T09:12:39;102975.97;;;-2.26;100.00
73101;BME280;61288;53.446;-2.266;2023-11-25T09:15:06;102966.34;;;-2.15;100.00
73101;BME280;61288;53.446;-2.266;2023-11-25T09:17:33;102971.97;;;-2.05;100.00
73101;BME280;61288;53.446;-2.266;2023-11-25T09:20:06;102976.47;;;-1.99;100.00
73101;BME280;61288;53.446;-2.266;2023-11-25T09:22:36;102983.66;;;-1.90;100.00
73101;BME280;61288;53.446;-2.266;2023-11-25T09:25:08;102978.22;;;-1.80;100.00
73101;BME280;61288;53.446;-2.266;2023-11-25T09:30:19;102983.59;;;-1.55;100.00
73101;BME280;61288;53.446;-2.266;2023-11-25T09:32:48;102975.56;;;-1.45;100.00
73101;BME280;61288;53.446;-2.266;2023-11-25T09:35:13;102975.19;;;-1.35;100.00
73101;BME280;61288;53.446;-2.266;2023-11-25T09:37:41;102978.09;;;-1.27;100.00
73101;BME280;61288;53.446;-2.266;2023-11-25T09:40:08;102980.41;;;-1.13;100.00
73101;BME280;61288;53.446;-2.266;2023-11-25T09:42:44;102974.38;;;-0.96;100.00
73101;BME280;61288;53.446;-2.266;2023-11-25T09:45:11;102968.41;;;-0.77;100.00
73101;BME280;61288;53.446;-2.266;2023-11-25T09:47:47;102964.13;;;-0.58;100.00
73101;BME280;61288;53.446;-2.266;2023-11-25T09:50:12;102966.31;;;-0.46;100.00
73101;BME280;61288;53.446;-2.266;2023-11-25T09:56:01;102940.47;;;-0.13;100.00
73101;BME280;61288;53.446;-2.266;2023-11-25T09:58:34;102936.59;;;-0.03;100.00
73101;BME280;61288;53.446;-2.266;2023-11-25T10:01:00;102934.06;;;0.18;100.00
73101;BME280;61288;53.446;-2.266;2023-11-25T10:03:28;102936.31;;;0.33;100.00
73101;BME280;61288;53.446;-2.266;2023-11-25T10:06:01;102936.06;;;0.50;100.00
73101;BME280;61288;53.446;-2.266;2023-11-25T10:08:27;102912.22;;;0.72;100.00
73101;BME280;61288;53.446;-2.266;2023-11-25T10:11:04;102917.22;;;0.93;100.00
73101;BME280;61288;53.446;-2.266;2023-11-25T10:13:41;102912.69;;;1.10;100.00
73101;BME280;61288;53.446;-2.266;2023-11-25T10:16:25;102898.03;;;1.29;100.00
73101;BME280;61288;53.446;-2.266;2023-11-25T10:18:51;102886.19;;;1.58;100.00
73101;BME280;61288;53.446;-2.266;2023-11-25T10:21:17;102884.34;;;1.82;100.00
73101;BME280;61288;53.446;-2.266;2023-11-25T10:23:44;102868.72;;;1.71;100.00
73101;BME280;61288;53.446;-2.266;2023-11-25T10:26:09;102870.06;;;1.87;100.00
73101;BME280;61288;53.446;-2.266;2023-11-25T10:28:35;102855.09;;;1.99;100.00
73101;BME280;61288;53.446;-2.266;2023-11-25T10:31:07;102868.53;;;2.21;100.00
73101;BME280;61288;53.446;-2.266;2023-11-25T10:33:35;102881.47;;;2.58;100.00
73101;BME280;61288;53.446;-2.266;2023-11-25T10:36:03;102886.50;;;2.85;100.00
73101;BME280;61288;53.446;-2.266;2023-11-25T10:38:29;102904.22;;;3.10;100.00
73101;BME280;61288;53.446;-2.266;2023-11-25T10:41:01;102917.91;;;3.44;100.00
73101;BME280;61288;53.446;-2.266;2023-11-25T10:43:28;102947.06;;;3.84;100.00
73101;BME280;61288;53.446;-2.266;2023-11-25T10:46:14;102979.59;;;4.24;100.00
73101;BME280;61288;53.446;-2.266;2023-11-25T10:48:39;103009.66;;;4.68;100.00
73101;BME280;61288;53.446;-2.266;2023-11-25T10:51:06;103035.38;;;5.11;100.00
73101;BME280;61288;53.446;-2.266;2023-11-25T10:53:37;103072.88;;;5.44;100.00
73101;BME280;61288;53.446;-2.266;2023-11-25T10:56:06;103113.72;;;5.74;100.00
73101;BME280;61288;53.446;-2.266;2023-11-25T10:58:34;103141.56;;;5.96;100.00
73101;BME280;61288;53.446;-2.266;2023-11-25T11:01:03;103165.41;;;5.85;100.00
73101;BME280;61288;53.446;-2.266;2023-11-25T11:03:59;103138.94;;;5.91;100.00
73101;BME280;61288;53.446;-2.266;2023-11-25T11:06:28;103120.44;;;6.12;100.00
73101;BME280;61288;53.446;-2.266;2023-11-25T11:08:59;103089.56;;;6.12;100.00
73101;BME280;61288;53.446;-2.266;2023-11-25T11:11:49;103070.66;;;6.10;100.00
73101;BME280;61288;53.446;-2.266;2023-11-25T11:14:16;103051.44;;;5.92;100.00
73101;BME280;61288;53.446;-2.266;2023-11-25T11:19:56;103048.53;;;5.72;100.00
73101;BME280;61288;53.446;-2.266;2023-11-25T11:22:24;103053.47;;;5.60;100.00
73101;BME280;61288;53.446;-2.266;2023-11-25T11:25:03;103074.78;;;5.53;100.00
73101;BME280;61288;53.446;-2.266;2023-11-25T11:27:49;103070.09;;;5.31;100.00
73101;BME280;61288;53.446;-2.266;2023-11-25T11:33:01;103082.16;;;5.35;100.00
73101;BME280;61288;53.446;-2.266;2023-11-25T11:35:37;103101.66;;;5.26;100.00
73101;BME280;61288;53.446;-2.266;2023-11-25T11:38:28;103101.28;;;5.48;100.00
73101;BME280;61288;53.446;-2.266;2023-11-25T11:43:32;103092.56;;;5.43;100.00
73101;BME280;61288;53.446;-2.266;2023-11-25T11:46:03;103089.09;;;5.41;100.00
73101;BME280;61288;53.446;-2.266;2023-11-25T11:48:30;103095.03;;;5.37;100.00
73101;BME280;61288;53.446;-2.266;2023-11-25T11:50:57;103103.56;;;5.36;100.00
73101;BME280;61288;53.446;-2.266;2023-11-25T11:53:24;103093.19;;;5.30;100.00
73101;BME280;61288;53.446;-2.266;2023-11-25T11:55:55;103114.53;;;5.26;100.00
73101;BME280;61288;53.446;-2.266;2023-11-25T11:58:30;103142.81;;;5.27;100.00
73101;BME280;61288;53.446;-2.266;2023-11-25T12:03:35;103154.22;;;5.40;100.00
73101;BME280;61288;53.446;-2.266;2023-11-25T12:06:02;103163.09;;;5.55;100.00
73101;BME280;61288;53.446;-2.266;2023-11-25T12:08:33;103149.19;;;5.45;100.00
73101;BME280;61288;53.446;-2.266;2023-11-25T12:11:00;103139.75;;;5.44;100.00
73101;BME280;61288;53.446;-2.266;2023-11-25T12:13:37;103134.53;;;5.41;100.00
73101;BME280;61288;53.446;-2.266;2023-11-25T12:16:06;103131.09;;;5.40;100.00
73101;BME280;61288;53.446;-2.266;2023-11-25T12:18:37;103140.56;;;5.43;100.00
73101;BME280;61288;53.446;-2.266;2023-11-25T12:21:04;103138.28;;;5.58;100.00
73101;BME280;61288;53.446;-2.266;2023-11-25T12:23:32;103135.03;;;5.66;100.00
73101;BME280;61288;53.446;-2.266;2023-11-25T12:25:59;103127.47;;;5.75;100.00
73101;BME280;61288;53.446;-2.266;2023-11-25T12:28:25;103137.03;;;5.81;100.00
73101;BME280;61288;53.446;-2.266;2023-11-25T12:30:51;103130.38;;;5.92;100.00
73101;BME280;61288;53.446;-2.266;2023-11-25T12:33:17;103109.78;;;5.92;100.00
73101;BME280;61288;53.446;-2.266;2023-11-25T12:35:43;103140.13;;;6.09;100.00
73101;BME280;61288;53.446;-2.266;2023-11-25T12:38:14;103147.00;;;6.08;100.00
73101;BME280;61288;53.446;-2.266;2023-11-25T12:40:41;103135.81;;;6.07;100.00
73101;BME280;61288;53.446;-2.266;2023-11-25T12:43:08;103124.84;;;6.19;100.00
73101;BME280;61288;53.446;-2.266;2023-11-25T12:45:44;103123.25;;;6.26;100.00
73101;BME280;61288;53.446;-2.266;2023-11-25T12:48:28;103121.72;;;6.36;100.00
73101;BME280;61288;53.446;-2.266;2023-11-25T12:51:03;103119.19;;;6.41;100.00
73101;BME280;61288;53.446;-2.266;2023-11-25T12:53:33;103129.50;;;6.41;100.00
73101;BME280;61288;53.446;-2.266;2023-11-25T12:56:12;103123.50;;;6.42;100.00
73101;BME280;61288;53.446;-2.266;2023-11-25T12:58:43;103133.78;;;6.40;100.00